Thunder radar more information blitzortung!


Radar de pluja more information rain snow radar


Visita la nostra xarxa de llocs de meteo:

Template documentation
and downloads

And another site



No particular awareness of the weather is required.    There are no Weather-warnings

Pagina Historial Weather Underground text

Diari Resum Novembre 11, 2017 Unitats:  Mètric    Imperial   Tant
« Previous Dia
SegĂźent Dia »
Diari Setmana Mensual Anual Personalitzada
  Maxima: Minima: Media:
Temperatura: -17.8 °C -14.3 °C -12.1 °C
Punt de rosada: -17.8 °C -17.8 °C -15.8 °C
Humitat: Humidity % 57 % 63 %
Wind Speed: 0 km/h 0 km/h 5.3 km/h
RĂ fegues de vent: 0 km/h - -
Vent:- - SSW
Pression baro: 0 hPa 34567.7 hPa -
Precipitacions: 0 mm    
Historical Graphs
 
 
Dades de taula per Novembre 11, 2017
Temps Temperatura Punt de rosada Pression baro Vent Wind Speed RĂ fegues de vent Humitat Rainfall Rate (Hourly)
-17.8 °C -17.8 °C 0 hPa Calm     Humidity % 0 mm
00:01 -13.8 °C -17.8 °C 34740.4 hPa Calm     60 % 0 mm
00:06 -13.8 °C -17.8 °C 34740.4 hPa West 3.1 km/h 3.1 km/h 60 % 0 mm
00:11 -13.8 °C -17.8 °C 34740.4 hPa Calm     60 % 0 mm
00:16 -13.8 °C -17.8 °C 34740.4 hPa West 3.7 km/h   60 % 0 mm
00:21 -13.8 °C -17.8 °C 34703.1 hPa West 6 km/h 6 km/h 60 % 0 mm
00:26 -13.7 °C -17.7 °C 34703.1 hPa West 3.1 km/h 3.1 km/h 60 % 0 mm
00:31 -13.8 °C -17.8 °C 34703.1 hPa West 3.1 km/h 3.1 km/h 60 % 0 mm
00:36 -13.7 °C -17.7 °C 34740.4 hPa West 3.1 km/h   60 % 0 mm
00:41 -13.7 °C -17.7 °C 34740.4 hPa West 4.2 km/h   60 % 0 mm
00:46 -13.7 °C -17.6 °C 34740.4 hPa NE 6 km/h 6 km/h 61 % 0 mm
00:51 -13.7 °C -17.6 °C 34703.1 hPa NNE 3.7 km/h   61 % 0 mm
00:56 -13.8 °C -17.7 °C 34703.1 hPa WNW 3.1 km/h 3.1 km/h 61 % 0 mm
01:01 -13.8 °C -17.7 °C 34703.1 hPa NNE 6 km/h 6 km/h 61 % 0 mm
01:06 -13.9 °C -17.8 °C 34703.1 hPa NW 6 km/h   61 % 0 mm
01:11 -13.9 °C -17.8 °C 34703.1 hPa NNW 6 km/h 6 km/h 61 % 0 mm
01:12 -13.9 °C -17.8 °C 34703.1 hPa WNW 6 km/h 6 km/h 61 % 0 mm
01:17 -13.9 °C -17.8 °C 34703.1 hPa WSW 6 km/h 6 km/h 61 % 0 mm
01:22 -13.9 °C -17.7 °C 34740.4 hPa WNW 6 km/h 6 km/h 62 % 0 mm
01:27 -14 °C -17.8 °C 34740.4 hPa WSW 6 km/h 6 km/h 62 % 0 mm
01:32 -14 °C -17.8 °C 34740.4 hPa WNW 3.1 km/h   62 % 0 mm
01:37 -14.1 °C -17.8 °C 34703.1 hPa WNW 6 km/h 6 km/h 62 % 0 mm
01:42 -14 °C -17.8 °C 34703.1 hPa WNW 6 km/h 6 km/h 62 % 0 mm
01:47 -14 °C -17.8 °C 34703.1 hPa West 6 km/h 6 km/h 62 % 0 mm
01:52 -14 °C -17.8 °C 34703.1 hPa NNE 9 km/h 9 km/h 62 % 0 mm
01:57 -13.9 °C -17.6 °C 34703.1 hPa WNW 5.6 km/h 5.6 km/h 63 % 0 mm
02:02 -13.9 °C -17.7 °C 34703.1 hPa WNW 6 km/h 6 km/h 62 % 0 mm
02:07 -13.9 °C -17.7 °C 34669.3 hPa NNW 6 km/h 6 km/h 62 % 0 mm
02:12 -13.9 °C -17.7 °C 34669.3 hPa NW 6 km/h 6 km/h 62 % 0 mm
02:17 -13.9 °C -17.6 °C 34669.3 hPa North 6 km/h   63 % 0 mm
02:22 -13.9 °C -17.6 °C 34669.3 hPa WNW 6 km/h 6 km/h 63 % 0 mm
02:27 -13.9 °C -17.7 °C 34669.3 hPa WNW 6 km/h 6 km/h 62 % 0 mm
02:32 -13.9 °C -17.6 °C 34669.3 hPa NW 3.7 km/h 5.6 km/h 63 % 0 mm
02:37 -13.9 °C -17.7 °C 34669.3 hPa West 5.6 km/h 5.6 km/h 62 % 0 mm
02:42 -14 °C -17.8 °C 34669.3 hPa WSW 6 km/h 6 km/h 62 % 0 mm
02:47 -14 °C -17.7 °C 34669.3 hPa West 3.1 km/h 3.1 km/h 63 % 0 mm
02:48 -13.9 °C -17.6 °C 34669.3 hPa West 3.1 km/h 3.1 km/h 63 % 0 mm
02:53 -13.9 °C -17.6 °C 34669.3 hPa WNW 4.2 km/h 4.2 km/h 63 % 0 mm
02:58 -13.9 °C -17.6 °C 34669.3 hPa WNW 3.7 km/h 3.7 km/h 63 % 0 mm
03:03 -13.9 °C -17.6 °C 34669.3 hPa NW 2.3 km/h   63 % 0 mm
03:08 -13.9 °C -17.6 °C 34669.3 hPa WNW 3.7 km/h   63 % 0 mm
03:13 -13.9 °C -17.6 °C 34669.3 hPa WNW 6 km/h 6 km/h 63 % 0 mm
03:18 -13.9 °C -17.6 °C 34669.3 hPa SW 6 km/h 6 km/h 63 % 0 mm
03:23 -13.9 °C -17.6 °C 34669.3 hPa NW 6 km/h 6 km/h 63 % 0 mm
03:28 -13.9 °C -17.4 °C 34669.3 hPa South 6 km/h 6 km/h 64 % 0 mm
03:33 -14 °C -17.7 °C 34669.3 hPa WSW 7.6 km/h 7.6 km/h 63 % 0 mm
03:34 -14 °C -17.7 °C 34669.3 hPa WSW 6.8 km/h 6.8 km/h 63 % 0 mm
03:39 -14 °C -17.7 °C 34669.3 hPa West 5.1 km/h   63 % 0 mm
03:44 -14 °C -17.7 °C 34669.3 hPa WSW 9 km/h 9 km/h 63 % 0 mm
03:49 -13.9 °C -17.6 °C 34669.3 hPa West 6 km/h 6 km/h 63 % 0 mm
03:54 -13.9 °C -17.4 °C 34669.3 hPa NNW 6 km/h 6 km/h 64 % 0 mm
03:59 -13.9 °C -17.4 °C 34669.3 hPa ENE 6 km/h 6 km/h 64 % 0 mm
04:04 -14.1 °C -17.6 °C 34703.1 hPa NNE 9 km/h 9 km/h 64 % 0 mm
04:09 -14.1 °C -17.6 °C 34703.1 hPa ENE 6.3 km/h 6.3 km/h 64 % 0 mm
04:16 -14.2 °C -17.7 °C 34703.1 hPa NE 9 km/h 9 km/h 64 % 0 mm
04:21 -14.3 °C -17.7 °C 34669.3 hPa NNE 9 km/h 9 km/h 65 % 0 mm
04:22 -14.3 °C -17.7 °C 34669.3 hPa ENE 9 km/h 9 km/h 65 % 0 mm
04:23 -14.3 °C -17.7 °C 34669.3 hPa NNE 9 km/h 9 km/h 65 % 0 mm
04:24 -14.3 °C -17.7 °C 34669.3 hPa NNE 9 km/h 9 km/h 65 % 0 mm
04:28 -14.3 °C -17.7 °C 34669.3 hPa North 11.9 km/h 11.9 km/h 65 % 0 mm
04:29 -14.3 °C -17.7 °C 34669.3 hPa NE 9 km/h 9 km/h 65 % 0 mm
04:33 -14.3 °C -17.7 °C 34669.3 hPa North 9 km/h 9 km/h 65 % 0 mm
04:38 -14.3 °C -17.7 °C 34669.3 hPa NW 5.1 km/h 5.1 km/h 65 % 0 mm
04:43 -14.3 °C -17.7 °C 34669.3 hPa West 9 km/h 9 km/h 65 % 0 mm
04:48 -14.3 °C -17.7 °C 34669.3 hPa NNW 7.6 km/h 7.6 km/h 65 % 0 mm
04:53 -14.3 °C -17.7 °C 34669.3 hPa NNW 6.3 km/h 6.8 km/h 65 % 0 mm
04:58 -14.2 °C -17.6 °C 34669.3 hPa North 9 km/h 9 km/h 65 % 0 mm
05:03 -14.2 °C -17.6 °C 34669.3 hPa WNW 6 km/h 6 km/h 65 % 0 mm
05:08 -14.2 °C -17.6 °C 34669.3 hPa NE 9 km/h 9 km/h 65 % 0 mm
05:13 -14.2 °C -17.4 °C 34669.3 hPa ENE 6 km/h 6 km/h 66 % 0 mm
05:18 -14.2 °C -17.6 °C 34669.3 hPa NNE 9 km/h 9 km/h 65 % 0 mm
05:23 -14.1 °C -17.4 °C 34635.4 hPa NNE 6.3 km/h 6.3 km/h 66 % 0 mm
05:28 -14.1 °C -17.3 °C 34635.4 hPa North 4.2 km/h 4.2 km/h 66 % 0 mm
05:33 -14.1 °C -17.3 °C 34635.4 hPa North 9 km/h 9 km/h 66 % 0 mm
05:38 -14.1 °C -17.4 °C 34669.3 hPa ENE 6 km/h 6 km/h 65 % 0 mm
05:43 -14 °C -17.3 °C 34669.3 hPa East 6 km/h 6 km/h 66 % 0 mm
05:48 -14 °C -17.3 °C 34669.3 hPa SSE 6 km/h 6 km/h 66 % 0 mm
05:53 -14 °C -17.3 °C 34669.3 hPa NE 6 km/h 6 km/h 66 % 0 mm
05:58 -13.9 °C -17.2 °C 34669.3 hPa WNW 6 km/h 6 km/h 66 % 0 mm
06:03 -13.9 °C -17.2 °C 34669.3 hPa NNW 6 km/h 6 km/h 66 % 0 mm
06:08 -14 °C -17.3 °C 34669.3 hPa North 6 km/h 6 km/h 66 % 0 mm
06:13 -13.9 °C -17.2 °C 34669.3 hPa WNW 6 km/h 6 km/h 66 % 0 mm
06:18 -14 °C -17.3 °C 34669.3 hPa North 6 km/h 6 km/h 66 % 0 mm
06:23 -13.9 °C -17.1 °C 34669.3 hPa East 3.1 km/h 3.1 km/h 67 % 0 mm
06:28 -13.9 °C -17.2 °C 34669.3 hPa NNW 6 km/h 6 km/h 66 % 0 mm
06:33 -13.9 °C -17.1 °C 34669.3 hPa WNW 3.1 km/h   67 % 0 mm
06:38 -13.9 °C -17.2 °C 34669.3 hPa West 6 km/h 6 km/h 66 % 0 mm
06:39 -13.9 °C -17.2 °C 34669.3 hPa West 3.1 km/h   66 % 0 mm
06:44 -14 °C -17.3 °C 34669.3 hPa West 3.7 km/h 3.7 km/h 66 % 0 mm
06:49 -14 °C -17.2 °C 34669.3 hPa Calm     67 % 0 mm
06:54 -14 °C -17.2 °C 34669.3 hPa Calm     67 % 0 mm
06:59 -14 °C -17.2 °C 34669.3 hPa NNW 3.1 km/h   67 % 0 mm
07:04 -14 °C -17.2 °C 34669.3 hPa Calm     67 % 0 mm
07:09 -14.1 °C -17.2 °C 34669.3 hPa NW 3.1 km/h 3.1 km/h 67 % 0 mm
07:14 -14.1 °C -17.2 °C 34669.3 hPa NW 6 km/h   67 % 0 mm
07:19 -14.1 °C -17.2 °C 34669.3 hPa West 9 km/h 9 km/h 67 % 0 mm
07:24 -14.1 °C -17.2 °C 34669.3 hPa WNW 3.1 km/h   67 % 0 mm
07:29 -14.1 °C -17.3 °C 34669.3 hPa West 3.1 km/h 3.7 km/h 67 % 0 mm
07:34 -14.2 °C -17.3 °C 34669.3 hPa SW 3.7 km/h 3.7 km/h 67 % 0 mm
07:39 -14.2 °C -17.3 °C 34669.3 hPa ESE 6 km/h 6 km/h 67 % 0 mm
07:44 -14.1 °C -17.3 °C 34669.3 hPa West 6 km/h 6 km/h 67 % 0 mm
07:49 -14 °C -17.1 °C 34669.3 hPa NNW 6 km/h 6 km/h 68 % 0 mm
07:54 -13.9 °C -17.1 °C 34669.3 hPa SW 6 km/h 6 km/h 67 % 0 mm
07:59 -13.8 °C -16.9 °C 34669.3 hPa NW 3.1 km/h   68 % 0 mm
08:04 -13.7 °C -16.9 °C 34669.3 hPa SW 6 km/h 6 km/h 67 % 0 mm
08:09 -13.6 °C -16.6 °C 34669.3 hPa SW 6 km/h   68 % 0 mm
08:14 -13.3 °C -16.6 °C 34669.3 hPa NNW 6 km/h 6 km/h 67 % 0 mm
08:19 -13.1 °C -16.3 °C 34703.1 hPa NNW 9 km/h 9 km/h 67 % 0 mm
08:24 -13 °C -16.2 °C 34703.1 hPa NE 5.1 km/h 5.1 km/h 67 % 0 mm
08:29 -12.8 °C -16.2 °C 34703.1 hPa NNW 6 km/h 6 km/h 66 % 0 mm
08:34 -12.8 °C -16.1 °C 34703.1 hPa ENE 6 km/h   66 % 0 mm
08:39 -12.7 °C -16.1 °C 34703.1 hPa West 3.1 km/h 3.1 km/h 66 % 0 mm
08:45 -12.4 °C -15.8 °C 34703.1 hPa ENE 6 km/h 6 km/h 66 % 0 mm
08:50 -12.4 °C -15.9 °C 34703.1 hPa Calm     65 % 0 mm
08:55 -12.6 °C -16.1 °C 34703.1 hPa NNE 6 km/h 6 km/h 65 % 0 mm
09:00 -12.7 °C -16.2 °C 34703.1 hPa ENE 6.8 km/h 6.8 km/h 65 % 0 mm
09:05 -12.7 °C -16.2 °C 34703.1 hPa ENE 9 km/h 9 km/h 65 % 0 mm
09:10 -12.8 °C -16.2 °C 34703.1 hPa NW 6 km/h   65 % 0 mm
09:15 -12.7 °C -16.2 °C 34703.1 hPa ENE 6 km/h 6 km/h 65 % 0 mm
09:20 -12.8 °C -16.2 °C 34703.1 hPa ENE 9 km/h 9 km/h 65 % 0 mm
09:25 -12.8 °C -16.2 °C 34703.1 hPa NE 2.6 km/h 7.7 km/h 65 % 0 mm
09:30 -12.8 °C -16.2 °C 34703.1 hPa Calm   5.1 km/h 65 % 0 mm
09:35 -12.8 °C -16.1 °C 34703.1 hPa Calm   5.1 km/h 66 % 0 mm
09:40 -12.8 °C -16.1 °C 34703.1 hPa NE 6 km/h 6 km/h 66 % 0 mm
09:45 -12.8 °C -16.1 °C 34703.1 hPa WNW 5.1 km/h 5.1 km/h 66 % 0 mm
09:50 -12.7 °C -16.2 °C 34682.8 hPa NW 2.6 km/h 7.7 km/h 65 % 0 mm
09:55 -12.7 °C -16.2 °C 34669.3 hPa NW 2.6 km/h 7.7 km/h 65 % 0 mm
10:00 -12.6 °C -16.1 °C 34669.3 hPa North 2.6 km/h 5.1 km/h 65 % 0 mm
10:05 -12.6 °C -16 °C 34669.3 hPa NNW 6 km/h 6 km/h 65 % 0 mm
10:10 -12.6 °C -15.9 °C 34669.3 hPa WNW 6 km/h 6 km/h 66 % 0 mm
10:15 -12.5 °C -16 °C 34669.3 hPa Calm   5.1 km/h 65 % 0 mm
10:20 -12.5 °C -16 °C 34669.3 hPa WNW 2.6 km/h 7.7 km/h 65 % 0 mm
10:25 -12.5 °C -16 °C 34669.3 hPa WSW 6 km/h 6 km/h 65 % 0 mm
10:30 -12.5 °C -16 °C 34669.3 hPa Calm   2.6 km/h 65 % 0 mm
10:35 -12.4 °C -15.9 °C 34669.3 hPa NE 3.1 km/h   65 % 0 mm
10:40 -12.4 °C -15.9 °C 34669.3 hPa NE 3.1 km/h   65 % 0 mm
10:45 -12.4 °C -15.9 °C 34669.3 hPa WNW 6 km/h 6 km/h 65 % 0 mm
10:50 -12.4 °C -15.9 °C 34669.3 hPa Calm   5.1 km/h 65 % 0 mm
10:55 -12.3 °C -15.8 °C 34669.3 hPa Calm   7.7 km/h 65 % 0 mm
11:00 -12.3 °C -15.8 °C 34669.3 hPa ENE 6 km/h 6 km/h 65 % 0 mm
11:05 -12.3 °C -15.9 °C 34703.1 hPa WNW 6 km/h   64 % 0 mm
11:10 -12.3 °C -15.9 °C 34703.1 hPa ESE 6.3 km/h   64 % 0 mm
11:15 -12.3 °C -15.9 °C 34703.1 hPa NW 2.6 km/h 7.7 km/h 64 % 0 mm
11:20 -12.3 °C -15.9 °C 34682.8 hPa Calm   7.7 km/h 64 % 0 mm
11:25 -12.2 °C -15.8 °C 34669.3 hPa NW 2.6 km/h 7.7 km/h 64 % 0 mm
11:30 -12.2 °C -15.8 °C 34669.3 hPa ENE 9 km/h 9 km/h 64 % 0 mm
11:35 -12.2 °C -15.8 °C 34669.3 hPa NNE 5.1 km/h 15.6 km/h 64 % 0 mm
11:40 -12.1 °C -15.9 °C 34669.3 hPa NNE 3.1 km/h   63 % 0 mm
11:45 -12.1 °C -15.8 °C 34669.3 hPa Calm   2.6 km/h 63 % 0 mm
11:50 -12.1 °C -15.8 °C 34669.3 hPa WNW 3.1 km/h 3.1 km/h 63 % 0 mm
11:55 -12 °C -15.7 °C 34669.3 hPa ENE 6 km/h   63 % 0 mm
12:00 -11.9 °C -15.6 °C 34669.3 hPa SW 3.7 km/h   64 % 0 mm
12:05 -11.9 °C -15.6 °C 34669.3 hPa ENE 9 km/h 9 km/h 64 % 0 mm
12:10 -11.9 °C -15.7 °C 34669.3 hPa NE 2.6 km/h 7.7 km/h 63 % 0 mm
12:15 -11.9 °C -15.7 °C 34669.3 hPa NE 5.1 km/h 7.7 km/h 63 % 0 mm
12:20 -11.9 °C -15.7 °C 34669.3 hPa NNW 3.1 km/h   63 % 0 mm
12:25 -11.8 °C -15.6 °C 34669.3 hPa WSW 6.3 km/h 6.3 km/h 63 % 0 mm
12:30 -11.8 °C -15.5 °C 34669.3 hPa NNW 3.1 km/h   63 % 0 mm
12:35 -11.8 °C -15.5 °C 34669.3 hPa NNW 9 km/h 9 km/h 63 % 0 mm
12:40 -11.8 °C -15.5 °C 34669.3 hPa NNW 2.6 km/h 5.1 km/h 63 % 0 mm
12:45 -11.7 °C -15.4 °C 34669.3 hPa West 2.6 km/h 5.1 km/h 64 % 0 mm
12:50 -11.7 °C -15.3 °C 34669.3 hPa WSW 2.6 km/h 5.1 km/h 64 % 0 mm
12:55 -11.7 °C -15.3 °C 34669.3 hPa Calm     64 % 0 mm
13:00 -11.6 °C -15.4 °C 34669.3 hPa NE 6 km/h   63 % 0 mm
13:05 -11.6 °C -15.2 °C 34669.3 hPa Calm   2.6 km/h 64 % 0 mm
13:10 -11.6 °C -15.2 °C 34669.3 hPa WNW 2.6 km/h 5.1 km/h 64 % 0 mm
13:15 -11.5 °C -15.1 °C 34669.3 hPa Calm     65 % 0 mm
13:20 -11.5 °C -15.1 °C 34669.3 hPa SW 3.7 km/h   65 % 0 mm
13:25 -11.4 °C -15.1 °C 34669.3 hPa SW 3.1 km/h   64 % 0 mm
13:30 -11.4 °C -14.9 °C 34669.3 hPa SW 2.6 km/h 5.1 km/h 65 % 0 mm
13:35 -11.3 °C -15 °C 34669.3 hPa Calm   7.7 km/h 64 % 0 mm
13:40 -11.3 °C -14.9 °C 34669.3 hPa Calm   5.1 km/h 64 % 0 mm
13:45 -11.3 °C -14.9 °C 34669.3 hPa West 6 km/h 6 km/h 64 % 0 mm
13:50 -11.2 °C -14.9 °C 34635.4 hPa NW 3.1 km/h   64 % 0 mm
13:55 -11.2 °C -14.8 °C 34635.4 hPa Calm   2.6 km/h 64 % 0 mm
14:00 -11.1 °C -14.6 °C 34635.4 hPa SW 6 km/h 6 km/h 65 % 0 mm
14:05 -11.1 °C -14.6 °C 34635.4 hPa SW 2.6 km/h 5.1 km/h 65 % 0 mm
14:10 -11.1 °C -14.7 °C 34635.4 hPa WSW 6 km/h 6 km/h 64 % 0 mm
14:15 -11 °C -14.7 °C 34635.4 hPa NW 6 km/h 6 km/h 64 % 0 mm
14:20 -11 °C -14.7 °C 34635.4 hPa NW 5.1 km/h 10.3 km/h 64 % 0 mm
14:25 -11 °C -14.7 °C 34635.4 hPa NW 6 km/h 6 km/h 64 % 0 mm
14:30 -10.9 °C -14.6 °C 34635.4 hPa NNE 3.1 km/h   64 % 0 mm
14:35 -10.9 °C -14.6 °C 34635.4 hPa WSW 5.1 km/h 5.1 km/h 64 % 0 mm
14:40 -10.9 °C -14.6 °C 34635.4 hPa West 6 km/h   64 % 0 mm
14:45 -10.8 °C -14.5 °C 34635.4 hPa NW 3.1 km/h   64 % 0 mm
14:50 -10.8 °C -14.5 °C 34635.4 hPa NW 6 km/h 6 km/h 64 % 0 mm
14:55 -10.8 °C -14.5 °C 34635.4 hPa NE 6 km/h 6 km/h 64 % 0 mm
15:00 -10.8 °C -14.5 °C 34635.4 hPa WSW 17.9 km/h 17.9 km/h 64 % 0 mm
15:05 -10.5 °C -14.2 °C 34635.4 hPa NW 6.8 km/h 6.8 km/h 64 % 0 mm
15:08 -10.4 °C -14.1 °C 34635.4 hPa WNW 6 km/h 6 km/h 64 % 0 mm
15:13 -10.3 °C -14.1 °C 34635.4 hPa NW 11.9 km/h 11.9 km/h 64 % 0 mm
15:18 -10.1 °C -13.9 °C 34635.4 hPa NW 9 km/h 9 km/h 63 % 0 mm
15:23 -10.1 °C -13.8 °C 34635.4 hPa WNW 6 km/h 6 km/h 64 % 0 mm
15:28 -9.9 °C -13.7 °C 34635.4 hPa WSW 6 km/h 6 km/h 63 % 0 mm
15:33 -9.7 °C -13.6 °C 34635.4 hPa NW 6 km/h 6 km/h 63 % 0 mm
15:38 -9.4 °C -13.3 °C 34635.4 hPa WSW 15 km/h 15 km/h 63 % 0 mm
15:43 -9.1 °C -13.2 °C 34635.4 hPa WNW 6 km/h 6.3 km/h 62 % 0 mm
15:48 -9.1 °C -13.1 °C 34635.4 hPa WSW 10.3 km/h 10.3 km/h 62 % 0 mm
15:53 -8.9 °C -13 °C 34635.4 hPa West 17.9 km/h 17.9 km/h 62 % 0 mm
15:58 -8.7 °C -12.9 °C 34635.4 hPa WSW 9 km/h 9 km/h 61 % 0 mm
16:03 -8.7 °C -13 °C 34635.4 hPa WSW 10.3 km/h 10.3 km/h 60 % 0 mm
16:08 -8.6 °C -12.9 °C 34601.5 hPa NNW 11.9 km/h 11.9 km/h 60 % 0 mm
16:13 -8.6 °C -13 °C 34601.5 hPa West 11.9 km/h 11.9 km/h 59 % 0 mm
16:18 -8.6 °C -13 °C 34601.5 hPa SW 15 km/h 15 km/h 59 % 0 mm
16:23 -8.6 °C -13 °C 34601.5 hPa West 11.9 km/h 11.9 km/h 59 % 0 mm
16:28 -8.6 °C -13.2 °C 34601.5 hPa West 11.9 km/h 11.9 km/h 58 % 0 mm
16:33 -8.6 °C -13.3 °C 34601.5 hPa West 11.9 km/h 11.9 km/h 57 % 0 mm
16:38 -8.5 °C -13.3 °C 34601.5 hPa WSW 20.3 km/h 20.3 km/h 57 % 0 mm
16:43 -8.6 °C -13.3 °C 34601.5 hPa West 11.9 km/h 11.9 km/h 57 % 0 mm
16:48 -8.6 °C -13.4 °C 34601.5 hPa West 15 km/h 15 km/h 57 % 0 mm
16:53 -8.6 °C -13.4 °C 34601.5 hPa WSW 6 km/h 6 km/h 57 % 0 mm
16:58 -8.6 °C -13.4 °C 34601.5 hPa SW 3.1 km/h   57 % 0 mm
17:03 -8.7 °C -13.4 °C 34601.5 hPa Calm     57 % 0 mm
17:08 -8.7 °C -13.4 °C 34567.7 hPa SW 3.1 km/h   57 % 0 mm
17:13 -8.9 °C -13.6 °C 34567.7 hPa WNW 5.1 km/h 5.1 km/h 57 % 0 mm
17:18 -8.9 °C -13.7 °C 34567.7 hPa WNW 3.1 km/h   57 % 0 mm
17:23 -9.1 °C -13.7 °C 34601.5 hPa Calm     58 % 0 mm
17:25 -9.1 °C -13.7 °C 34601.5 hPa WNW 3.1 km/h   58 % 0 mm
17:30 -9.3 °C -13.8 °C 34601.5 hPa WNW 3.1 km/h   58 % 0 mm
17:35 -9.3 °C -13.8 °C 34601.5 hPa NW 6 km/h 6 km/h 58 % 0 mm
17:40 -9.4 °C -13.9 °C 34601.5 hPa WNW 3.1 km/h 3.1 km/h 58 % 0 mm
17:45 -9.4 °C -13.8 °C 34601.5 hPa West 6 km/h 6 km/h 59 % 0 mm
17:50 -9.6 °C -14 °C 34601.5 hPa WSW 5.6 km/h 5.6 km/h 59 % 0 mm
17:55 -9.6 °C -14 °C 34601.5 hPa SW 6 km/h 6 km/h 59 % 0 mm
18:00 -9.8 °C -14.2 °C 34601.5 hPa WSW 6 km/h 6 km/h 59 % 0 mm
18:05 -9.8 °C -14.2 °C 34601.5 hPa WSW 3.1 km/h   59 % 0 mm
18:10 -9.9 °C -14.3 °C 34601.5 hPa Calm     59 % 0 mm
18:15 -10 °C -14.4 °C 34601.5 hPa NNW 3.1 km/h   59 % 0 mm
18:20 -10 °C -14.4 °C 34567.7 hPa NE 6 km/h 6 km/h 59 % 0 mm
18:25 -9.9 °C -14.2 °C 34567.7 hPa NE 6 km/h 6 km/h 60 % 0 mm
18:30 -10 °C -14.3 °C 34567.7 hPa ENE 6 km/h 6 km/h 60 % 0 mm
18:35 -10.1 °C -14.3 °C 34601.5 hPa NE 6 km/h 6 km/h 60 % 0 mm
18:40 -10.2 °C -14.4 °C 34601.5 hPa NNE 3.1 km/h 3.1 km/h 60 % 0 mm
18:45 -10.3 °C -14.5 °C 34601.5 hPa Calm     60 % 0 mm
18:50 -10.3 °C -14.6 °C 34601.5 hPa NNW 6 km/h 6 km/h 60 % 0 mm
18:55 -10.4 °C -14.6 °C 34601.5 hPa North 6 km/h 6 km/h 60 % 0 mm
19:00 -10.4 °C -14.6 °C 34601.5 hPa North 6 km/h 6 km/h 60 % 0 mm
19:05 -10.5 °C -14.6 °C 34567.7 hPa NNE 7.6 km/h 7.6 km/h 61 % 0 mm
19:10 -10.6 °C -14.7 °C 34567.7 hPa WSW 9 km/h 9 km/h 61 % 0 mm
19:15 -10.7 °C -14.8 °C 34567.7 hPa NE 6 km/h 6 km/h 61 % 0 mm
19:20 -10.7 °C -14.8 °C 34567.7 hPa WNW 3.1 km/h   61 % 0 mm
19:25 -10.7 °C -14.7 °C 34567.7 hPa NNW 3.1 km/h 3.1 km/h 62 % 0 mm
19:30 -10.7 °C -14.7 °C 34567.7 hPa NNW 3.1 km/h   62 % 0 mm
19:35 -10.8 °C -14.8 °C 34567.7 hPa NE 3.1 km/h 3.1 km/h 62 % 0 mm
19:40 -11.1 °C -14.9 °C 34567.7 hPa West 6.3 km/h 6.3 km/h 62 % 0 mm
19:45 -11.1 °C -15.1 °C 34567.7 hPa WSW 9 km/h 9 km/h 62 % 0 mm
19:50 -11.1 °C -15.1 °C 34601.5 hPa NW 6 km/h 6 km/h 62 % 0 mm
19:55 -10.9 °C -14.8 °C 34601.5 hPa NW 6 km/h 6 km/h 63 % 0 mm
20:00 -10.8 °C -14.6 °C 34601.5 hPa WNW 9 km/h 9 km/h 63 % 0 mm
20:05 -10.6 °C -14.4 °C 34601.5 hPa SW 6 km/h 6 km/h 63 % 0 mm
20:10 -10.6 °C -14.4 °C 34601.5 hPa WNW 3.7 km/h   63 % 0 mm
20:15 -10.6 °C -14.3 °C 34601.5 hPa Calm     64 % 0 mm
20:16 -10.6 °C -14.3 °C 34601.5 hPa Calm     64 % 0 mm
20:21 -10.5 °C -14.2 °C 34601.5 hPa Calm     64 % 0 mm
20:26 -10.4 °C -14.1 °C 34601.5 hPa Calm     64 % 0 mm
20:31 -10.4 °C -14.1 °C 34601.5 hPa WNW 6 km/h   64 % 0 mm
20:36 -10.4 °C -14.1 °C 34601.5 hPa NNE 6 km/h 6 km/h 64 % 0 mm
20:41 -10.4 °C -14.2 °C 34601.5 hPa NNW 11.9 km/h 11.9 km/h 63 % 0 mm
20:46 -10.3 °C -14.2 °C 34601.5 hPa NNW 3.1 km/h 3.1 km/h 63 % 0 mm
20:51 -10.3 °C -14.1 °C 34601.5 hPa WNW 6 km/h 6 km/h 63 % 0 mm
20:56 -10.2 °C -14.1 °C 34601.5 hPa SW 9 km/h 9 km/h 63 % 0 mm
21:01 -10.2 °C -14.1 °C 34601.5 hPa WNW 6 km/h 6 km/h 63 % 0 mm
21:06 -10.2 °C -14 °C 34601.5 hPa West 4.2 km/h 4.2 km/h 63 % 0 mm
21:11 -10.2 °C -14.1 °C 34601.5 hPa North 6 km/h   63 % 0 mm
21:16 -10.3 °C -14.1 °C 34601.5 hPa West 4.2 km/h 4.2 km/h 63 % 0 mm
21:21 -10.3 °C -14.2 °C 34601.5 hPa Calm     63 % 0 mm
21:26 -10.4 °C -14.3 °C 34601.5 hPa WNW 6 km/h   63 % 0 mm
21:31 -10.4 °C -14.3 °C 34601.5 hPa WNW 9 km/h 9 km/h 63 % 0 mm
21:36 -10.5 °C -14.3 °C 34601.5 hPa West 6 km/h 6 km/h 63 % 0 mm
21:38 -10.4 °C -14.3 °C 34601.5 hPa SW 6 km/h 6 km/h 63 % 0 mm
21:43 -10.4 °C -14.3 °C 34601.5 hPa North 6 km/h 6 km/h 63 % 0 mm
21:48 -10.5 °C -14.3 °C 34601.5 hPa West 6 km/h 6 km/h 63 % 0 mm
21:53 -10.6 °C -14.4 °C 34601.5 hPa West 5.1 km/h 5.1 km/h 63 % 0 mm
21:58 -10.6 °C -14.4 °C 34601.5 hPa WNW 6 km/h   63 % 0 mm
22:03 -10.6 °C -14.4 °C 34601.5 hPa ENE 3.1 km/h   63 % 0 mm
22:08 -10.7 °C -14.4 °C 34601.5 hPa NE 3.1 km/h 3.1 km/h 64 % 0 mm
22:13 -10.8 °C -14.5 °C 34601.5 hPa NNE 6.8 km/h 6.8 km/h 64 % 0 mm
22:18 -10.9 °C -14.6 °C 34601.5 hPa ENE 4.2 km/h 4.2 km/h 64 % 0 mm
22:23 -10.9 °C -14.6 °C 34601.5 hPa NNE 6.3 km/h 6.3 km/h 64 % 0 mm
22:29 -11 °C -14.7 °C 34601.5 hPa NNE 6 km/h 6 km/h 64 % 0 mm
22:34 -11 °C -14.7 °C 34601.5 hPa NW 3.1 km/h 3.1 km/h 64 % 0 mm
22:39 -10.9 °C -14.6 °C 34601.5 hPa NE 6 km/h 6 km/h 64 % 0 mm
22:44 -11.1 °C -14.8 °C 34601.5 hPa NNE 3.1 km/h 3.1 km/h 64 % 0 mm
22:49 -11.3 °C -14.8 °C 34601.5 hPa NNE 6 km/h 6 km/h 65 % 0 mm
22:54 -11.3 °C -14.8 °C 34601.5 hPa NNE 3.1 km/h   65 % 0 mm
22:59 -11.3 °C -14.8 °C 34601.5 hPa ENE 3.1 km/h 3.7 km/h 65 % 0 mm
23:04 -11.3 °C -14.9 °C 34601.5 hPa North 6 km/h 6 km/h 65 % 0 mm
23:09 -11.3 °C -14.9 °C 34601.5 hPa North 8 km/h 8 km/h 65 % 0 mm
23:14 -11.3 °C -14.9 °C 34601.5 hPa North 6 km/h 6 km/h 65 % 0 mm
23:19 -11.3 °C -14.9 °C 34601.5 hPa NNE 9 km/h 9 km/h 65 % 0 mm
23:24 -11.3 °C -14.9 °C 34601.5 hPa West 6 km/h 6 km/h 65 % 0 mm
23:29 -11.3 °C -14.9 °C 34601.5 hPa North 9 km/h 9 km/h 65 % 0 mm
23:34 -11.3 °C -14.9 °C 34601.5 hPa North 9 km/h 9 km/h 65 % 0 mm
23:39 -11.3 °C -14.9 °C 34601.5 hPa North 9 km/h 9 km/h 65 % 0 mm
23:44 -11.4 °C -14.9 °C 34601.5 hPa WNW 6 km/h   65 % 0 mm
23:49 -11.4 °C -14.8 °C 34601.5 hPa NNW 3.1 km/h 3.1 km/h 66 % 0 mm
23:54 -11.4 °C -14.8 °C 34601.5 hPa NE 3.1 km/h 3.1 km/h 66 % 0 mm
23:59 -11.5 °C -14.9 °C 34601.5 hPa NNW 3.1 km/h   66 % 0 mm
Meteo Sesrovires
Elogis d' Weather Underground - 2 mb

Guio original per  Jim McMurry - jmcmurry@mwt.net Adaptat per a la plantilla per  Wim van der Kuil - Leuven-Template.eu

Trobareu la nostra informacio del temps tambe a:

Weather Underground

AWEKAS